Time;durP1;ratioP1;P1;durP2;ratioP2;P2;SDS_P1;SDS_P2;PMS_P1;PMS_P2;Temp;Humidity;BMP_temperature;BMP_pressure;BME280_temperature;BME280_humidity;BME280_pressure;Samples;Min_cycle;Max_cycle;Signal;HPM_P1;HPM_P2
2023/08/18 00:04:40;;;;;;;6.27;4.73;;;22.00;99.90;;;;;;4981093;28;20461;-75
2023/08/18 00:07:47;;;;;;;5.57;4.90;;;21.90;99.90;;;;;;4994350;28;20554;-75
2023/08/18 00:17:04;;;;;;;6.60;5.20;;;21.80;99.90;;;;;;5039257;28;20438;-75
2023/08/18 00:19:55;;;;;;;5.50;5.10;;;21.80;99.90;;;;;;5045013;28;20458;-76
2023/08/18 00:26:02;;;;;;;6.00;5.10;;;21.70;99.90;;;;;;5070215;28;20441;-75
2023/08/18 00:41:42;;;;;;;5.77;5.37;;;21.50;99.90;;;;;;4955167;29;20594;-76
2023/08/18 00:47:43;;;;;;;6.53;5.90;;;21.40;99.90;;;;;;5010059;28;20484;-77
2023/08/18 00:56:39;;;;;;;7.93;5.70;;;21.20;99.90;;;;;;5012334;28;20499;-76
2023/08/18 01:12:37;;;;;;;6.53;5.93;;;21.00;99.90;;;;;;4997795;28;20455;-74
2023/08/18 01:16:12;;;;;;;;;;;;;;;;;;;;;
2023/08/18 01:19:12;;;;;;;6.33;5.60;;;20.90;99.90;;;;;;4984005;28;20456;-76
2023/08/18 01:31:17;;;;;;;6.00;5.50;;;20.80;99.90;;;;;;5061145;28;20426;-78
2023/08/18 01:34:30;;;;;;;6.70;5.80;;;20.80;99.90;;;;;;5063705;28;20433;-77
2023/08/18 01:37:13;;;;;;;6.13;5.63;;;20.70;99.90;;;;;;5064917;28;20896;-77
2023/08/18 01:40:05;;;;;;;6.33;5.73;;;20.70;99.90;;;;;;5066322;28;20444;-76
2023/08/18 01:43:19;;;;;;;8.73;6.30;;;20.70;99.90;;;;;;5067358;28;20438;-76
2023/08/18 01:49:09;;;;;;;7.53;6.80;;;20.60;99.90;;;;;;5024612;28;20486;-78
2023/08/18 01:52:11;;;;;;;6.73;6.00;;;20.50;99.90;;;;;;5030602;28;20443;-76
2023/08/18 01:55:21;;;;;;;6.87;6.27;;;20.50;99.90;;;;;;5027168;28;20449;-76
2023/08/18 01:58:14;;;;;;;6.90;6.40;;;20.50;99.90;;;;;;5020498;28;20455;-78
2023/08/18 02:00:53;;;;;;;6.53;6.00;;;20.50;99.90;;;;;;5020021;28;20510;-78
2023/08/18 02:03:43;;;;;;;6.43;5.93;;;20.40;99.90;;;;;;5022714;28;20527;-77
2023/08/18 02:06:20;;;;;;;6.90;6.40;;;20.40;99.90;;;;;;5023669;28;20474;-76
2023/08/18 02:09:03;;;;;;;7.10;6.47;;;20.30;99.90;;;;;;5050596;28;20523;-76
2023/08/18 02:12:04;;;;;;;6.60;6.03;;;20.20;99.90;;;;;;5071818;28;20464;-78
2023/08/18 02:15:29;;;;;;;6.87;6.20;;;20.20;99.90;;;;;;5071133;28;20460;-76
2023/08/18 02:18:26;;;;;;;6.27;5.67;;;20.20;99.90;;;;;;5069052;28;20513;-76
2023/08/18 02:21:21;;;;;;;6.53;5.53;;;20.20;99.90;;;;;;5071277;28;20959;-76
2023/08/18 02:24:04;;;;;;;6.03;5.47;;;20.20;99.90;;;;;;4989414;28;20906;-76
2023/08/18 02:27:16;;;;;;;8.40;5.77;;;20.20;99.90;;;;;;5049834;28;20505;-77
2023/08/18 02:30:15;;;;;;;5.73;5.20;;;20.20;99.90;;;;;;5049383;28;20474;-77
2023/08/18 02:42:39;;;;;;;6.80;5.30;;;20.00;99.90;;;;;;5064611;28;20479;-77
2023/08/18 02:48:53;;;;;;;6.70;6.00;;;20.10;99.90;;;;;;5032743;28;20449;-77
2023/08/18 02:51:51;;;;;;;7.90;5.90;;;20.00;99.90;;;;;;5070477;28;20453;-76
2023/08/18 02:54:35;;;;;;;5.03;4.57;;;20.10;99.90;;;;;;5053430;28;20457;-78
2023/08/18 02:57:42;;;;;;;5.73;3.93;;;19.90;99.90;;;;;;5068208;28;20461;-76
2023/08/18 03:03:31;;;;;;;5.83;5.23;;;20.00;99.90;;;;;;5064502;28;20465;-76
2023/08/18 03:06:29;;;;;;;9.57;5.50;;;19.90;99.90;;;;;;5064262;28;20471;-75
2023/08/18 03:09:38;;;;;;;;;;;;;;;;;;;;;
2023/08/18 03:12:37;;;;;;;8.63;5.90;;;19.90;99.90;;;;;;5070436;28;20442;-78
2023/08/18 03:15:25;;;;;;;5.23;4.80;;;19.90;99.90;;;;;;5050518;28;20438;-77
2023/08/18 03:18:20;;;;;;;6.53;5.63;;;19.80;99.90;;;;;;5043703;28;20484;-77
2023/08/18 03:26:48;;;;;;;6.03;5.33;;;19.80;99.90;;;;;;5066448;28;20472;-76
2023/08/18 03:32:23;;;;;;;6.20;5.80;;;19.70;99.90;;;;;;5065476;28;20436;-76
2023/08/18 03:34:59;;;;;;;6.33;5.70;;;19.60;99.90;;;;;;5070359;28;20453;-77
2023/08/18 03:38:13;;;;;;;6.20;5.67;;;19.50;99.90;;;;;;5070490;28;20520;-78
2023/08/18 03:40:51;;;;;;;9.70;6.03;;;19.60;99.90;;;;;;5054474;28;20460;-76
2023/08/18 03:43:29;;;;;;;9.00;5.73;;;19.50;99.90;;;;;;5068543;28;20434;-77
2023/08/18 03:46:14;;;;;;;6.97;6.20;;;19.50;99.90;;;;;;5066787;28;20473;-77
2023/08/18 03:49:17;;;;;;;6.13;5.50;;;19.50;99.90;;;;;;5067138;28;20537;-78
2023/08/18 03:52:15;;;;;;;6.60;5.67;;;19.50;99.90;;;;;;5066791;28;20457;-76
2023/08/18 03:54:51;;;;;;;10.60;5.90;;;19.40;99.90;;;;;;5067125;28;20477;-79
2023/08/18 03:57:37;;;;;;;6.90;6.10;;;19.30;99.90;;;;;;5066404;28;20466;-76
2023/08/18 04:00:29;;;;;;;7.33;6.00;;;19.30;99.90;;;;;;5067469;28;20445;-77
2023/08/18 04:03:15;;;;;;;6.17;5.67;;;19.30;99.90;;;;;;5064956;28;20454;-78
2023/08/18 04:06:13;;;;;;;8.03;6.17;;;19.30;99.90;;;;;;5067024;28;21028;-76
2023/08/18 04:09:24;;;;;;;7.90;6.10;;;19.20;99.90;;;;;;5065761;28;20461;-77
2023/08/18 04:12:04;;;;;;;6.90;6.30;;;19.20;99.90;;;;;;5023503;28;20443;-77
2023/08/18 04:15:12;;;;;;;7.57;6.13;;;19.10;99.90;;;;;;5023492;28;20453;-78
2023/08/18 04:18:02;;;;;;;;;;;;;;;;;;;;;
2023/08/18 04:20:44;;;;;;;6.70;6.17;;;19.00;99.90;;;;;;5054168;28;20442;-78
2023/08/18 04:23:26;;;;;;;6.30;5.60;;;19.00;99.90;;;;;;5063027;28;20532;-77
2023/08/18 04:26:00;;;;;;;5.90;5.43;;;19.10;99.90;;;;;;5066189;28;20544;-79
2023/08/18 04:28:31;;;;;;;6.77;6.10;;;19.10;99.90;;;;;;5066657;28;20460;-78
2023/08/18 04:31:03;;;;;;;6.80;6.10;;;19.10;99.90;;;;;;5066406;28;20469;-77
2023/08/18 04:33:53;;;;;;;6.70;6.10;;;19.10;99.90;;;;;;5065127;28;20476;-78
2023/08/18 04:36:35;;;;;;;8.53;6.50;;;19.10;99.90;;;;;;5067966;28;20497;-77
2023/08/18 04:39:37;;;;;;;6.60;5.90;;;19.00;99.90;;;;;;5065822;28;20484;-77
2023/08/18 04:42:29;;;;;;;7.03;6.00;;;19.00;99.90;;;;;;5064619;28;20437;-77
2023/08/18 04:45:10;;;;;;;6.90;6.27;;;19.00;99.90;;;;;;5064840;28;20465;-78
2023/08/18 04:48:05;;;;;;;8.70;6.07;;;19.00;99.90;;;;;;5064438;28;20430;-77
2023/08/18 04:50:51;;;;;;;8.60;6.00;;;18.90;99.90;;;;;;5065002;28;20487;-79
2023/08/18 04:53:20;;;;;;;8.50;6.10;;;18.90;99.90;;;;;;5063999;28;20449;-76
2023/08/18 04:55:50;;;;;;;6.80;6.20;;;18.90;99.90;;;;;;5063713;28;20549;-79
2023/08/18 04:58:18;;;;;;;6.37;5.87;;;18.90;99.90;;;;;;5061702;28;20481;-77
2023/08/18 05:00:46;;;;;;;8.77;6.33;;;18.90;99.90;;;;;;5061145;28;20465;-77
2023/08/18 05:03:15;;;;;;;9.83;6.90;;;18.90;99.90;;;;;;5064817;28;20433;-77
2023/08/18 05:06:00;;;;;;;8.50;6.03;;;18.90;99.90;;;;;;5067241;28;20481;-78
2023/08/18 05:08:32;;;;;;;7.13;6.33;;;19.00;99.90;;;;;;5068048;28;20522;-77
2023/08/18 05:11:08;;;;;;;8.10;6.70;;;19.00;99.90;;;;;;5067796;28;20569;-80
2023/08/18 05:13:41;;;;;;;6.53;5.93;;;19.00;99.90;;;;;;5065799;28;20449;-77
2023/08/18 05:16:10;;;;;;;7.43;6.43;;;19.10;99.90;;;;;;5065221;28;20527;-76
2023/08/18 05:18:52;;;;;;;7.40;6.40;;;19.10;99.90;;;;;;5066789;28;20445;-80
2023/08/18 05:21:29;;;;;;;7.07;6.40;;;19.10;99.90;;;;;;5066712;28;20453;-78
2023/08/18 05:23:58;;;;;;;8.10;7.37;;;19.20;99.90;;;;;;5065154;28;20497;-78
2023/08/18 05:26:32;;;;;;;6.90;6.30;;;19.20;99.90;;;;;;5062955;28;20470;-76
2023/08/18 05:29:10;;;;;;;7.13;6.53;;;19.30;99.90;;;;;;5062390;28;20525;-79
2023/08/18 05:31:40;;;;;;;7.30;6.20;;;19.40;99.90;;;;;;5061634;28;20442;-76
2023/08/18 05:34:09;;;;;;;6.83;6.23;;;19.40;99.90;;;;;;5060297;28;20524;-76
2023/08/18 05:36:39;;;;;;;8.17;6.67;;;19.40;99.90;;;;;;5061784;28;20999;-77
2023/08/18 05:39:10;;;;;;;6.97;6.40;;;19.40;99.90;;;;;;5060844;28;20445;-77
2023/08/18 05:41:41;;;;;;;9.00;7.67;;;19.40;99.90;;;;;;5060053;28;20446;-78
2023/08/18 05:44:09;;;;;;;6.80;6.20;;;19.40;99.90;;;;;;5042873;28;20418;-77
2023/08/18 05:46:41;;;;;;;7.20;6.50;;;19.60;99.90;;;;;;5062236;28;20468;-77
2023/08/18 05:49:13;;;;;;;7.93;6.40;;;19.70;99.90;;;;;;5064587;28;20456;-77
2023/08/18 05:51:46;;;;;;;12.43;7.20;;;19.70;99.90;;;;;;5065836;28;20446;-78
2023/08/18 05:54:21;;;;;;;7.53;6.73;;;19.80;99.90;;;;;;5063079;28;20476;-79
2023/08/18 05:56:54;;;;;;;7.70;6.50;;;20.00;99.90;;;;;;5062711;28;20466;-76
2023/08/18 05:59:32;;;;;;;7.03;6.33;;;20.10;99.90;;;;;;5062747;28;20450;-76
2023/08/18 06:02:05;;;;;;;8.17;7.10;;;20.20;99.90;;;;;;5064319;28;20469;-78
2023/08/18 06:04:36;;;;;;;6.60;6.00;;;20.20;99.90;;;;;;5062531;28;20430;-76
2023/08/18 06:07:11;;;;;;;7.53;5.83;;;20.30;99.90;;;;;;5063798;28;20523;-77
2023/08/18 06:09:42;;;;;;;7.60;6.23;;;20.50;99.90;;;;;;5061790;28;20483;-77
2023/08/18 06:12:12;;;;;;;6.97;6.10;;;20.60;99.90;;;;;;5059634;28;20601;-82
2023/08/18 06:14:40;;;;;;;6.93;6.37;;;20.70;99.90;;;;;;5059263;28;20476;-78
2023/08/18 06:17:13;;;;;;;7.30;6.67;;;20.70;99.90;;;;;;5056535;28;20472;-77
2023/08/18 06:19:53;;;;;;;5.60;5.23;;;20.80;99.90;;;;;;5058985;28;20445;-76
2023/08/18 06:22:26;;;;;;;6.37;5.80;;;20.90;99.90;;;;;;5060831;28;20468;-77
2023/08/18 06:25:05;;;;;;;6.37;5.17;;;20.90;99.90;;;;;;5059827;28;20434;-78
2023/08/18 06:27:39;;;;;;;10.13;6.40;;;21.00;99.90;;;;;;5060758;28;20473;-77
2023/08/18 06:30:13;;;;;;;6.70;6.07;;;21.00;99.90;;;;;;5058845;28;20545;-78
2023/08/18 06:32:48;;;;;;;7.20;5.83;;;21.00;99.90;;;;;;5059311;28;20635;-77
2023/08/18 06:35:20;;;;;;;9.57;6.33;;;21.10;99.90;;;;;;5061281;28;20452;-78
2023/08/18 06:37:50;;;;;;;8.00;6.80;;;21.10;99.90;;;;;;5061862;28;20453;-77
2023/08/18 06:40:18;;;;;;;6.53;6.03;;;21.30;99.90;;;;;;5063822;28;20497;-76
2023/08/18 06:42:49;;;;;;;6.37;5.77;;;21.30;99.90;;;;;;5063551;28;20434;-78
2023/08/18 06:45:20;;;;;;;7.57;6.50;;;21.50;99.90;;;;;;5060981;28;20815;-80
2023/08/18 06:47:49;;;;;;;7.10;5.97;;;21.60;99.90;;;;;;5062273;28;20434;-76
2023/08/18 06:50:18;;;;;;;6.07;5.30;;;21.60;99.90;;;;;;5064465;28;20996;-77
2023/08/18 06:52:59;;;;;;;54.97;49.63;;;21.70;99.90;;;;;;5066102;28;20949;-76
2023/08/18 06:55:36;;;;;;;13.93;12.50;;;21.80;99.90;;;;;;5066219;28;20516;-79
2023/08/18 06:58:07;;;;;;;9.30;8.27;;;21.90;99.90;;;;;;5064021;28;20878;-77
2023/08/18 07:00:35;;;;;;;6.20;5.10;;;22.00;99.90;;;;;;5057022;28;20462;-79
2023/08/18 07:03:07;;;;;;;6.47;5.60;;;22.10;99.90;;;;;;5055853;28;20453;-77
2023/08/18 07:05:39;;;;;;;6.40;5.77;;;22.10;99.90;;;;;;5056991;28;20492;-79
2023/08/18 07:08:32;;;;;;;5.70;5.20;;;22.20;99.90;;;;;;5058411;28;20468;-77
2023/08/18 07:11:08;;;;;;;5.77;5.17;;;22.30;99.90;;;;;;5058759;28;20481;-76
2023/08/18 07:13:50;;;;;;;;;;;;;;;;;;;;;
2023/08/18 07:16:33;;;;;;;5.80;4.77;;;22.40;99.90;;;;;;5059756;28;20860;-78
2023/08/18 07:19:11;;;;;;;6.70;5.00;;;22.50;99.90;;;;;;5042065;28;20816;-78
2023/08/18 07:21:54;;;;;;;7.13;5.70;;;22.60;99.90;;;;;;5058512;28;20438;-80
2023/08/18 07:24:33;;;;;;;6.80;4.87;;;22.70;99.90;;;;;;5038627;28;20791;-79
2023/08/18 07:27:08;;;;;;;5.97;5.40;;;22.80;99.90;;;;;;5037769;28;20462;-77
2023/08/18 07:29:40;;;;;;;8.90;5.67;;;22.90;99.90;;;;;;5036428;28;20588;-76
2023/08/18 07:32:15;;;;;;;4.90;4.50;;;23.00;99.90;;;;;;5035692;28;20451;-76
2023/08/18 07:34:53;;;;;;;5.53;4.80;;;23.10;99.90;;;;;;5035829;28;20527;-78
2023/08/18 07:37:28;;;;;;;7.00;5.00;;;23.20;99.90;;;;;;5036685;28;20474;-77
2023/08/18 07:40:01;;;;;;;4.30;3.90;;;23.30;99.90;;;;;;5036073;28;20516;-78
2023/08/18 07:42:32;;;;;;;4.73;4.33;;;23.50;99.90;;;;;;5039105;28;20446;-76
2023/08/18 07:45:02;;;;;;;6.07;4.80;;;23.50;99.90;;;;;;5040832;28;20438;-75
2023/08/18 07:47:30;;;;;;;4.83;4.20;;;23.60;99.90;;;;;;5039868;28;20501;-75
2023/08/18 07:49:59;;;;;;;7.07;3.23;;;23.70;99.90;;;;;;5054537;28;20454;-79
2023/08/18 07:52:30;;;;;;;4.10;3.80;;;23.80;99.90;;;;;;5049130;28;20855;-79
2023/08/18 07:55:04;;;;;;;3.93;3.60;;;23.80;99.90;;;;;;5057314;28;20450;-75
2023/08/18 07:57:39;;;;;;;5.47;3.70;;;23.90;99.90;;;;;;5048411;28;20465;-77
2023/08/18 08:00:10;;;;;;;5.40;4.57;;;24.10;99.90;;;;;;5053297;28;20543;-78
2023/08/18 08:02:39;;;;;;;4.37;4.07;;;24.20;99.90;;;;;;5055332;28;20450;-77
2023/08/18 08:05:12;;;;;;;4.30;3.80;;;24.20;99.90;;;;;;5053543;28;20508;-76
2023/08/18 08:07:41;;;;;;;3.70;3.40;;;24.30;99.90;;;;;;5042225;28;20492;-76
2023/08/18 08:10:18;;;;;;;5.37;3.40;;;24.40;99.90;;;;;;5060171;28;20442;-77
2023/08/18 08:12:49;;;;;;;4.73;3.50;;;24.60;99.90;;;;;;5059350;28;20434;-77
2023/08/18 08:15:29;;;;;;;3.37;3.07;;;24.70;99.90;;;;;;5058818;28;20480;-78
2023/08/18 08:18:03;;;;;;;3.83;3.47;;;24.90;99.90;;;;;;5058921;28;20945;-78
2023/08/18 08:20:31;;;;;;;3.30;2.90;;;25.10;99.90;;;;;;5058944;28;20449;-77
2023/08/18 08:23:04;;;;;;;4.07;3.27;;;25.30;99.90;;;;;;5058669;28;20429;-79
2023/08/18 08:25:38;;;;;;;3.50;3.20;;;25.40;99.90;;;;;;5058023;28;20481;-76
2023/08/18 08:28:07;;;;;;;4.60;2.50;;;25.60;99.90;;;;;;5061565;28;20410;-80
2023/08/18 08:30:47;;;;;;;3.70;3.03;;;25.70;99.90;;;;;;5065148;28;20977;-77
2023/08/18 08:33:16;;;;;;;3.20;3.00;;;25.70;99.90;;;;;;5063157;28;20445;-78
2023/08/18 08:35:44;;;;;;;7.00;3.20;;;25.60;99.90;;;;;;5061991;28;20479;-75
2023/08/18 08:38:17;;;;;;;3.37;3.07;;;25.90;99.90;;;;;;5060662;28;20450;-77
2023/08/18 08:40:48;;;;;;;5.20;3.50;;;26.10;99.90;;;;;;5061523;28;20453;-79
2023/08/18 08:43:18;;;;;;;3.50;3.20;;;26.30;99.90;;;;;;5061114;28;20437;-77
2023/08/18 08:45:51;;;;;;;6.60;2.93;;;26.60;99.90;;;;;;5058843;28;20630;-78
2023/08/18 08:48:22;;;;;;;3.60;3.30;;;26.80;99.90;;;;;;5058585;28;20964;-78
2023/08/18 08:51:00;;;;;;;4.30;3.10;;;27.10;99.90;;;;;;5060356;28;20912;-78
2023/08/18 08:53:35;;;;;;;3.97;3.10;;;27.30;99.90;;;;;;5060055;28;20923;-78
2023/08/18 08:56:19;;;;;;;3.50;3.20;;;27.50;99.90;;;;;;5061846;28;20508;-79
2023/08/18 08:58:53;;;;;;;3.37;3.07;;;27.60;99.90;;;;;;5059496;28;20422;-78
2023/08/18 09:01:24;;;;;;;4.80;2.63;;;27.80;99.90;;;;;;5055286;28;20536;-76
2023/08/18 09:03:53;;;;;;;3.50;2.60;;;27.90;99.90;;;;;;5056010;28;20456;-76
2023/08/18 09:06:24;;;;;;;2.50;2.13;;;28.20;99.90;;;;;;5055276;28;20474;-79
2023/08/18 09:08:52;;;;;;;3.13;2.40;;;28.50;99.90;;;;;;5053100;28;20983;-76
2023/08/18 09:11:46;;;;;;;2.37;2.23;;;28.80;99.90;;;;;;5061733;28;20478;-81
2023/08/18 09:14:22;;;;;;;4.37;3.00;;;28.90;99.90;;;;;;5062848;28;20441;-78
2023/08/18 09:16:50;;;;;;;3.67;2.13;;;29.40;99.90;;;;;;5064002;28;20469;-76
2023/08/18 09:19:19;;;;;;;2.90;2.30;;;29.50;99.90;;;;;;5062285;28;20449;-77
2023/08/18 09:21:58;;;;;;;4.90;2.50;;;29.70;99.90;;;;;;5062075;28;20466;-80
2023/08/18 09:24:30;;;;;;;3.13;2.10;;;30.00;99.90;;;;;;5063731;28;20441;-81
2023/08/18 09:27:12;;;;;;;2.57;1.93;;;30.30;99.90;;;;;;5063452;28;20493;-78
2023/08/18 09:29:52;;;;;;;4.10;2.10;;;30.30;99.90;;;;;;5065629;28;20449;-78
2023/08/18 09:32:27;;;;;;;3.17;2.30;;;30.40;99.90;;;;;;5063985;28;20473;-78
2023/08/18 09:35:05;;;;;;;4.47;2.53;;;30.40;99.90;;;;;;5064791;28;20449;-77
2023/08/18 09:37:48;;;;;;;3.23;2.47;;;30.90;99.90;;;;;;5064545;28;20480;-79
2023/08/18 09:40:17;;;;;;;2.60;2.40;;;;;;;;;;5065872;28;20445;-82
2023/08/18 09:42:49;;;;;;;2.77;2.50;;;31.60;99.90;;;;;;5067352;28;20441;-79
2023/08/18 09:45:22;;;;;;;2.60;2.40;;;31.50;99.90;;;;;;5064879;28;20469;-80
2023/08/18 09:47:57;;;;;;;3.33;2.50;;;31.60;99.90;;;;;;5066140;28;20456;-78
2023/08/18 09:50:28;;;;;;;2.57;2.37;;;31.60;99.90;;;;;;5066923;28;20532;-78
2023/08/18 09:53:02;;;;;;;3.10;2.10;;;31.80;99.90;;;;;;5064289;28;20430;-78
2023/08/18 09:55:35;;;;;;;5.50;2.50;;;31.90;99.90;;;;;;5061153;28;20434;-77
2023/08/18 09:58:13;;;;;;;3.33;2.37;;;32.30;99.90;;;;;;5062739;28;20455;-77
2023/08/18 10:00:56;;;;;;;2.50;2.30;;;32.40;99.90;;;;;;5059991;28;20465;-80
2023/08/18 10:03:29;;;;;;;2.07;1.90;;;32.50;99.90;;;;;;5056266;28;20453;-80
2023/08/18 10:06:01;;;;;;;4.57;2.13;;;32.90;99.90;;;;;;5053936;28;20593;-78
2023/08/18 10:08:32;;;;;;;6.20;2.30;;;32.50;99.90;;;;;;5056666;28;20433;-81
2023/08/18 10:11:02;;;;;;;2.30;2.10;;;32.80;99.90;;;;;;5054765;28;20518;-79
2023/08/18 10:13:34;;;;;;;3.13;2.10;;;32.90;99.90;;;;;;5053674;28;20517;-78
2023/08/18 10:16:05;;;;;;;2.30;2.10;;;33.00;99.70;;;;;;5056140;28;20972;-78
2023/08/18 10:18:34;;;;;;;4.73;2.10;;;33.00;99.70;;;;;;5052521;28;20456;-78
2023/08/18 10:21:04;;;;;;;2.47;1.90;;;33.10;99.30;;;;;;5055262;28;20484;-78
2023/08/18 10:23:33;;;;;;;3.07;2.03;;;33.00;99.00;;;;;;5057611;28;20469;-78
2023/08/18 10:26:07;;;;;;;4.20;2.27;;;33.30;98.50;;;;;;5058113;28;20561;-80
2023/08/18 10:28:37;;;;;;;2.53;2.43;;;33.30;97.80;;;;;;5055385;28;20812;-77
2023/08/18 10:31:09;;;;;;;3.43;2.53;;;33.20;97.90;;;;;;5054022;28;20512;-80
2023/08/18 10:33:47;;;;;;;3.60;2.07;;;33.60;97.30;;;;;;5058267;28;20530;-77
2023/08/18 10:36:21;;;;;;;2.60;2.40;;;34.00;97.10;;;;;;5055628;28;20469;-78
2023/08/18 10:38:54;;;;;;;2.33;2.10;;;34.10;96.10;;;;;;5058635;28;20462;-76
2023/08/18 10:41:29;;;;;;;2.70;2.10;;;34.10;95.60;;;;;;5065593;28;20438;-79
2023/08/18 10:43:59;;;;;;;2.37;2.23;;;34.00;95.70;;;;;;5064959;28;20445;-79
2023/08/18 10:46:35;;;;;;;2.90;2.23;;;34.30;95.40;;;;;;5066267;28;20462;-78
2023/08/18 10:49:04;;;;;;;3.20;2.10;;;34.40;94.50;;;;;;5058107;28;20425;-77
2023/08/18 10:51:33;;;;;;;3.20;2.10;;;34.70;93.50;;;;;;5057504;28;20469;-81
2023/08/18 10:54:01;;;;;;;2.43;2.23;;;34.50;93.90;;;;;;5057583;28;20950;-77
2023/08/18 10:56:29;;;;;;;3.00;2.17;;;34.70;93.30;;;;;;5057108;28;20548;-76
2023/08/18 10:58:59;;;;;;;2.13;1.83;;;34.70;92.00;;;;;;5057603;28;20450;-80
2023/08/18 11:01:28;;;;;;;3.77;2.23;;;34.90;91.50;;;;;;5057113;28;20503;-77
2023/08/18 11:03:59;;;;;;;1.67;1.57;;;35.10;91.60;;;;;;5051588;28;20479;-77
2023/08/18 11:06:27;;;;;;;2.50;2.30;;;35.40;91.00;;;;;;5056408;28;20500;-77
2023/08/18 11:08:59;;;;;;;2.50;2.10;;;35.50;90.20;;;;;;5052505;28;20437;-75
2023/08/18 11:11:30;;;;;;;4.77;2.57;;;35.60;89.70;;;;;;5056719;28;20505;-78
2023/08/18 11:14:00;;;;;;;2.37;2.17;;;35.50;89.00;;;;;;5054612;28;20437;-76
2023/08/18 11:16:28;;;;;;;3.33;2.00;;;35.50;89.20;;;;;;5055771;28;20465;-76
2023/08/18 11:18:59;;;;;;;2.93;2.20;;;35.70;89.00;;;;;;5055489;28;20967;-78
2023/08/18 11:21:30;;;;;;;2.40;1.87;;;35.70;85.20;;;;;;5057123;28;20878;-83
2023/08/18 11:24:09;;;;;;;2.30;2.13;;;35.90;83.60;;;;;;5055240;28;20442;-78
2023/08/18 11:26:38;;;;;;;1.97;1.77;;;36.10;84.00;;;;;;5036038;28;20474;-79
2023/08/18 11:29:10;;;;;;;4.20;1.93;;;36.20;80.30;;;;;;5036092;28;20492;-77
2023/08/18 11:31:39;;;;;;;1.40;1.30;;;36.00;79.70;;;;;;5055962;28;20474;-79
2023/08/18 11:34:09;;;;;;;2.80;1.53;;;36.20;76.60;;;;;;5052518;28;20517;-76
2023/08/18 11:36:37;;;;;;;2.43;1.53;;;36.30;74.80;;;;;;5044699;28;20466;-76
2023/08/18 11:39:07;;;;;;;1.50;1.40;;;36.40;70.90;;;;;;5053104;28;20450;-77
2023/08/18 11:41:40;;;;;;;1.70;1.60;;;36.50;70.80;;;;;;5058194;28;20783;-79
2023/08/18 11:44:15;;;;;;;2.83;1.70;;;36.20;70.10;;;;;;5056844;28;20442;-78
2023/08/18 11:46:45;;;;;;;2.00;1.50;;;36.60;69.60;;;;;;5055877;28;20460;-80
2023/08/18 11:49:18;;;;;;;2.93;1.67;;;36.80;70.30;;;;;;5056768;28;20454;-78
2023/08/18 11:52:03;;;;;;;3.90;1.80;;;37.10;68.40;;;;;;5056238;28;20905;-77
2023/08/18 11:54:42;;;;;;;2.40;1.90;;;37.20;68.80;;;;;;5055537;28;20473;-77
2023/08/18 11:57:18;;;;;;;2.67;1.90;;;37.30;67.80;;;;;;5055489;28;20484;-79
2023/08/18 11:59:48;;;;;;;2.13;1.93;;;37.30;65.60;;;;;;5055673;28;20452;-78
2023/08/18 12:02:22;;;;;;;3.30;1.73;;;37.50;66.30;;;;;;5053583;28;20453;-77
2023/08/18 12:04:53;;;;;;;2.70;1.80;;;37.60;66.30;;;;;;5048952;28;20529;-78
2023/08/18 12:07:24;;;;;;;2.47;1.93;;;37.80;66.70;;;;;;5051267;28;20467;-80
2023/08/18 12:09:51;;;;;;;4.30;2.10;;;37.90;64.60;;;;;;5051808;28;20921;-77
2023/08/18 12:12:21;;;;;;;6.10;2.17;;;37.60;64.40;;;;;;5054301;28;20477;-77
2023/08/18 12:14:51;;;;;;;1.80;1.70;;;37.70;65.20;;;;;;5053977;28;20464;-78
2023/08/18 12:17:23;;;;;;;2.50;2.20;;;37.60;65.80;;;;;;5054979;28;20875;-82
2023/08/18 12:19:54;;;;;;;4.40;1.77;;;38.00;66.10;;;;;;5054408;28;20434;-81
2023/08/18 12:22:24;;;;;;;2.93;2.10;;;38.30;64.70;;;;;;5055976;28;20926;-79
2023/08/18 12:25:01;;;;;;;2.13;1.63;;;38.50;63.60;;;;;;5054443;28;20537;-83
2023/08/18 12:27:29;;;;;;;2.97;2.10;;;38.70;63.40;;;;;;5055533;28;20472;-79
2023/08/18 12:29:59;;;;;;;2.83;2.27;;;38.40;62.80;;;;;;5037416;28;20510;-81
2023/08/18 12:32:30;;;;;;;2.97;2.00;;;38.50;63.60;;;;;;5049615;28;20477;-81
2023/08/18 12:35:01;;;;;;;2.07;1.80;;;38.80;63.90;;;;;;5055160;28;20507;-81
2023/08/18 12:37:29;;;;;;;3.00;1.97;;;39.00;61.70;;;;;;5055399;28;20461;-80
2023/08/18 12:40:02;;;;;;;3.13;1.67;;;39.00;60.20;;;;;;5054534;28;20442;-79
2023/08/18 12:42:33;;;;;;;2.03;1.73;;;38.90;59.40;;;;;;5054049;28;20456;-78
2023/08/18 12:45:06;;;;;;;3.87;1.80;;;38.20;59.70;;;;;;5053704;28;20992;-77
2023/08/18 12:47:34;;;;;;;2.30;2.10;;;38.20;61.10;;;;;;5054692;28;20466;-78
2023/08/18 12:50:04;;;;;;;2.50;1.67;;;38.60;60.90;;;;;;5053557;28;20453;-80
2023/08/18 12:52:35;;;;;;;1.83;1.73;;;38.80;60.20;;;;;;5054826;28;20480;-79
2023/08/18 12:55:07;;;;;;;5.13;1.90;;;38.50;59.80;;;;;;5054748;28;20477;-78
2023/08/18 12:57:36;;;;;;;3.60;1.70;;;38.80;60.00;;;;;;5054973;28;20527;-77
2023/08/18 13:00:11;;;;;;;5.93;2.20;;;39.00;59.40;;;;;;5057416;28;20512;-80
2023/08/18 13:02:42;;;;;;;4.10;1.70;;;39.00;59.10;;;;;;5057003;28;20456;-77
2023/08/18 13:05:14;;;;;;;4.03;2.30;;;39.20;57.60;;;;;;5041120;28;20472;-79
2023/08/18 13:07:47;;;;;;;2.40;2.13;;;39.00;58.10;;;;;;5057048;28;20450;-80
2023/08/18 13:10:19;;;;;;;2.40;1.80;;;38.90;59.30;;;;;;5058392;28;20430;-77
2023/08/18 13:12:52;;;;;;;4.77;2.37;;;38.80;58.80;;;;;;5060103;28;20469;-80
2023/08/18 13:15:29;;;;;;;2.30;1.50;;;37.10;58.10;;;;;;5057288;28;20507;-79
2023/08/18 13:18:02;;;;;;;2.97;1.93;;;38.90;59.60;;;;;;5059707;28;20455;-78
2023/08/18 13:20:36;;;;;;;3.60;2.00;;;38.60;59.80;;;;;;5060831;28;20439;-79
2023/08/18 13:23:15;;;;;;;2.00;1.90;;;39.20;60.50;;;;;;5059027;28;20437;-80
2023/08/18 13:25:48;;;;;;;2.00;1.80;;;39.80;59.00;;;;;;5058429;28;20469;-78
2023/08/18 13:28:20;;;;;;;2.20;2.00;;;39.50;58.60;;;;;;5059186;28;20460;-81
2023/08/18 13:31:19;;;;;;;1.93;1.70;;;39.70;57.90;;;;;;5060880;28;20449;-80
2023/08/18 13:33:49;;;;;;;4.80;2.37;;;39.50;57.70;;;;;;5059692;28;20476;-80
2023/08/18 13:36:24;;;;;;;2.80;1.80;;;39.70;57.20;;;;;;5058858;28;20492;-79
2023/08/18 13:38:56;;;;;;;2.93;1.90;;;39.80;56.20;;;;;;5058174;28;20471;-78
2023/08/18 13:41:29;;;;;;;3.47;1.93;;;39.80;56.40;;;;;;5059910;28;20445;-80
2023/08/18 13:44:05;;;;;;;2.03;1.80;;;39.70;56.30;;;;;;5056691;28;20476;-80
2023/08/18 13:46:37;;;;;;;2.80;2.60;;;39.90;57.00;;;;;;5056113;28;20464;-78
2023/08/18 13:49:11;;;;;;;5.13;2.10;;;40.20;56.70;;;;;;5039880;28;20438;-78
2023/08/18 13:51:45;;;;;;;4.90;3.00;;;39.90;56.80;;;;;;5056189;28;20440;-81
2023/08/18 13:54:18;;;;;;;6.03;2.60;;;40.20;57.20;;;;;;5056221;28;20544;-83
2023/08/18 13:56:55;;;;;;;3.73;1.87;;;40.00;55.90;;;;;;5057520;28;21039;-78
2023/08/18 13:59:37;;;;;;;3.23;1.80;;;39.80;55.90;;;;;;5056636;28;20448;-80
2023/08/18 14:02:11;;;;;;;2.90;1.60;;;39.70;56.00;;;;;;5058059;28;20992;-80
2023/08/18 14:04:46;;;;;;;4.37;1.50;;;40.20;53.50;;;;;;5057688;28;20503;-82
2023/08/18 14:07:25;;;;;;;5.67;2.60;;;40.20;54.10;;;;;;5037502;28;20466;-80
2023/08/18 14:09:59;;;;;;;3.37;2.00;;;40.20;53.80;;;;;;5046778;28;20472;-78
2023/08/18 14:12:31;;;;;;;4.53;2.10;;;40.30;53.50;;;;;;5055376;28;21375;-78
2023/08/18 14:15:05;;;;;;;3.40;1.80;;;40.30;53.60;;;;;;5056062;28;20449;-80
2023/08/18 14:17:41;;;;;;;2.83;2.13;;;39.90;52.30;;;;;;5052970;28;20473;-79
2023/08/18 14:20:14;;;;;;;4.37;1.87;;;39.20;54.50;;;;;;5053707;28;20461;-81
2023/08/18 14:22:51;;;;;;;2.40;1.80;;;39.40;53.20;;;;;;5054027;28;20445;-79
2023/08/18 14:25:23;;;;;;;3.10;2.40;;;39.80;53.80;;;;;;5054190;28;21032;-82
2023/08/18 14:27:53;;;;;;;3.20;2.37;;;40.10;53.60;;;;;;5055081;28;20441;-78
2023/08/18 14:30:30;;;;;;;3.83;2.17;;;40.00;54.90;;;;;;5054465;28;20477;-80
2023/08/18 14:33:19;;;;;;;;;;;;;;;;;;;;;
2023/08/18 14:36:06;;;;;;;2.83;2.20;;;40.20;53.90;;;;;;5056720;28;20484;-80
2023/08/18 14:38:39;;;;;;;3.17;2.23;;;40.40;53.50;;;;;;5057909;28;20968;-78
2023/08/18 14:41:16;;;;;;;3.67;2.13;;;40.10;52.60;;;;;;5059000;28;20449;-79
2023/08/18 14:43:58;;;;;;;6.40;2.20;;;39.60;53.30;;;;;;5057357;28;20473;-79
2023/08/18 14:46:37;;;;;;;2.80;2.37;;;39.00;53.10;;;;;;5055845;28;20998;-80
2023/08/18 14:49:45;;;;;;;3.30;2.20;;;39.60;53.80;;;;;;5041222;28;20937;-81
2023/08/18 14:55:12;;;;;;;2.77;2.43;;;39.80;53.90;;;;;;5054516;28;20516;-80
2023/08/18 14:57:42;;;;;;;2.23;1.93;;;39.70;54.70;;;;;;5047579;28;20464;-80
2023/08/18 15:00:15;;;;;;;3.93;2.40;;;39.30;54.00;;;;;;5044528;28;20430;-78
2023/08/18 15:02:50;;;;;;;2.70;2.40;;;39.30;53.90;;;;;;5053976;28;20422;-80
2023/08/18 15:05:22;;;;;;;2.83;2.63;;;39.20;54.40;;;;;;5053808;28;20455;-77
2023/08/18 15:07:56;;;;;;;2.00;1.80;;;39.30;54.10;;;;;;5052046;28;20932;-78
2023/08/18 15:10:28;;;;;;;2.87;2.00;;;39.40;55.20;;;;;;5057772;28;20440;-79
2023/08/18 15:12:56;;;;;;;5.73;2.20;;;38.80;55.40;;;;;;5060131;28;20488;-78
2023/08/18 15:15:28;;;;;;;2.30;1.93;;;38.90;55.60;;;;;;5061706;28;20484;-78